• Join FlightAware (Why Join?)
  • Login
  • US Flag 
10:27AM EDT


 

Airport Tracker/Info


-or-


 

Live Flight TrackerFlight Track Log ✈ LV-CSD ✈ 13-Jul-2013 ✈ KMIA - SAEZ / EZE

Flight Track Log - Related Links

Times and Time Zones

All times are in EDT time to prevent confusion due to time zone crossing. See the LV-CSD flight status page for this flight to view local times or setup timezone preferences in your user account.

Time Position Orientation Groundspeed Altitude Reporting Facility
EDT Latitude Longitude Course Direction KTS MPH feet Rate Location/Type
07:19PM 25.7910 -80.2750 90° East 12 14  Level FlightAware
07:22PM 25.7900 -80.2750 180° South  Level FlightAware
07:24PM 25.5717 -80.1525 156° South  Level FlightAware Approximate
07:25PM 25.4553 -80.0881 153° Southeast  Level FlightAware Approximate
07:26PM 25.3430 -80.0156 146° Southeast  Level FlightAware Approximate
07:27PM 25.2436 -79.9401 149° Southeast  Level FlightAware Approximate
07:28PM 25.1322 -79.8658 145° Southeast  Level FlightAware Approximate
07:29PM 25.0258 -79.7830 145° Southeast  Level FlightAware Approximate
07:30PM 24.9146 -79.7088 151° Southeast  Level FlightAware Approximate
07:31PM 24.8044 -79.6340 147° Southeast  Level FlightAware Approximate
07:32PM 24.6996 -79.5498 156° South  Level FlightAware Approximate
07:33PM 24.5863 -79.4797 149° Southeast  Level FlightAware Approximate
07:34PM 24.4781 -79.4002 146° Southeast  Level FlightAware Approximate
07:35PM 24.3685 -79.3233 149° Southeast  Level FlightAware Approximate
07:36PM 24.2573 -79.2491 149° Southeast  Level FlightAware Approximate
07:37PM 24.1461 -79.1750 149° Southeast  Level FlightAware Approximate
07:38PM 24.0348 -79.1010 149° Southeast  Level FlightAware Approximate
07:39PM 23.9207 -79.0388 162° South  Level FlightAware Approximate
07:40PM 23.7968 -78.9954 162° South  Level FlightAware Approximate
07:41PM 23.6728 -78.9521 162° South  Level FlightAware Approximate
07:42PM 23.5489 -78.9088 162° South  Level FlightAware Approximate
07:43PM 23.4249 -78.8656 162° South  Level FlightAware Approximate
07:44PM 23.3009 -78.8225 162° South  Level FlightAware Approximate
07:45PM 23.1769 -78.7795 162° South  Level FlightAware Approximate
07:46PM 23.0529 -78.7366 162° South  Level FlightAware Approximate
07:47PM 22.9289 -78.6937 162° South  Level FlightAware Approximate
07:50PM 25.5115 -80.1193 153° Southeast  Level FlightAware Approximate
07:50PM 25.7880 -80.2810 153° Southeast 82 94  Level FlightAware
07:50PM 25.7870 -80.2880 261° West 125 144 840 Level FlightAware
07:51PM 25.7850 -80.3250 267° West 171 197 800 1,320 Climbing FlightAware
07:51PM 25.7820 -80.3330 247° West 166 191 1,200 1,800 Climbing FlightAware
07:51PM 25.7720 -80.3560 244° Southwest 170 196 2,000 1,200 Climbing FlightAware
07:52PM 25.7640 -80.3650 225° Southwest 184 212 2,100 240 Climbing FlightAware
07:52PM 25.7550 -80.3670 191° South 197 227 2,100 540 Level FlightAware
07:52PM 25.7280 -80.3500 150° Southeast 214 246 2,500 780 Climbing FlightAware
07:53PM 25.7240 -80.3340 106° East 262 302 2,700 1,260 Climbing FlightAware
07:53PM 25.7280 -80.2980 83° East 288 331 3,300 1,980 Climbing FlightAware
07:53PM 25.7340 -80.2550 81° East 288 331 4,600 2,400 Climbing FlightAware
07:54PM 25.7360 -80.2400 82° East 287 330 4,900 1,800 Climbing FlightAware
07:54PM 25.7220 -80.2020 112° Southeast 277 319 5,800 1,860 Climbing FlightAware
07:54PM 25.7060 -80.1900 146° Southeast 274 315 6,300 1,920 Climbing FlightAware
07:55PM 25.6770 -80.1740 154° Southeast 281 323 7,100 1,920 Climbing FlightAware
07:55PM 25.6420 -80.1570 156° South 278 320 8,100 1,920 Climbing FlightAware
07:55PM 25.6290 -80.1510 157° South 285 328 8,400 1,620 Climbing FlightAware
07:56PM 25.5910 -80.1330 157° South 288 331 9,200 1,560 Climbing FlightAware
07:56PM 25.5540 -80.1140 155° Southeast 300 345 10,000 1,200 Climbing FlightAware
07:57PM 25.5010 -80.0880 156° South 316 364 10,600 840 Climbing FlightAware
07:58PM 25.4370 -80.0560 156° South 356 410 11,200 900 Climbing FlightAware
07:59PM 25.3560 -80.0230 160° South 371 427 12,100 1,320 Climbing FlightAware
07:59PM 25.2800 -79.9960 162° South 376 433 13,300 1,440 Climbing FlightAware
08:00PM 25.2130 -79.9710 161° South 392 451 14,200 1,440 Climbing FlightAware
08:01PM 25.1510 -79.9480 161° South 391 450 15,100 1,440 Climbing FlightAware
08:01PM 25.0810 -79.9220 161° South 404 465 16,000 1,320 Climbing FlightAware
08:02PM 25.0070 -79.8950 162° South 410 472 16,900 1,320 Climbing FlightAware
08:03PM 24.9270 -79.8650 161° South 409 471 17,900 1,320 Climbing FlightAware
08:03PM 24.8540 -79.8390 162° South 420 483 18,800 1,260 Climbing FlightAware
08:04PM 24.7700 -79.8080 161° South 427 491 19,700 1,140 Climbing FlightAware
08:05PM 24.6940 -79.7800 161° South 425 489 20,500 1,200 Climbing FlightAware
08:06PM 24.6180 -79.7520 161° South 426 490 21,300 720 Climbing FlightAware
08:07PM 24.4900 -79.7040 161° South 439 505 21,900 300 Climbing FlightAware
08:07PM 24.4320 -79.6820 161° South 439 505 21,900  Level FlightAware
08:08PM 24.3520 -79.6520 161° South 439 505 21,900 1,320 Level FlightAware
08:09PM 24.1725 -79.5875 161° South 444 511 24,700 1,620 Climbing Miami Center
08:10PM 24.0478 -79.5439 162° South 456 525 25,600 60 Climbing Miami Center
08:12PM 23.9345 -79.4374 158° South  Level FlightAware Approximate
08:19PM 23.0951 -79.0663 158° South  Level FlightAware Approximate
08:20PM 22.9750 -79.0139 158° South  Level FlightAware Approximate
08:21PM 22.8549 -78.9615 158° South  Level FlightAware Approximate
08:22PM 22.7348 -78.9092 158° South  Level FlightAware Approximate
08:23PM 22.6147 -78.8571 158° South  Level FlightAware Approximate
08:24PM 22.4946 -78.8050 158° South  Level FlightAware Approximate
08:25PM 22.3745 -78.7530 158° South  Level FlightAware Approximate
08:26PM 22.2543 -78.7011 158° South  Level FlightAware Approximate
08:27PM 22.1341 -78.6493 158° South  Level FlightAware Approximate
08:28PM 22.0140 -78.5975 158° South  Level FlightAware Approximate
08:29PM 21.8937 -78.5459 158° South  Level FlightAware Approximate
08:30PM 21.7735 -78.4944 158° South  Level FlightAware Approximate
08:31PM 21.6533 -78.4429 158° South  Level FlightAware Approximate
08:32PM 21.5330 -78.3915 158° South  Level FlightAware Approximate
08:33PM 21.4128 -78.3402 158° South  Level FlightAware Approximate
08:34PM 21.2925 -78.2890 158° South  Level FlightAware Approximate
08:35PM 21.1722 -78.2379 158° South  Level FlightAware Approximate
08:36PM 21.0519 -78.1868 158° South  Level FlightAware Approximate
08:37PM 20.9315 -78.1359 158° South  Level FlightAware Approximate
08:38PM 20.8112 -78.0850 158° South  Level FlightAware Approximate
08:39PM 20.6908 -78.0342 158° South  Level FlightAware Approximate
08:40PM 20.5705 -77.9835 158° South  Level FlightAware Approximate
08:41PM 20.4501 -77.9328 158° South  Level FlightAware Approximate
08:42PM 20.3297 -77.8823 159° South  Level FlightAware Approximate
08:43PM 20.2093 -77.8318 159° South  Level FlightAware Approximate
08:44PM 20.0888 -77.7814 159° South  Level FlightAware Approximate
08:45PM 19.9684 -77.7311 159° South  Level FlightAware Approximate
08:46PM 19.8479 -77.6808 159° South  Level FlightAware Approximate
08:47PM 19.7274 -77.6307 159° South  Level FlightAware Approximate
08:48PM 19.6070 -77.5806 159° South  Level FlightAware Approximate
08:49PM 19.4852 -77.5342 163° South  Level FlightAware Approximate
08:50PM 19.3616 -77.4937 163° South  Level FlightAware Approximate
08:51PM 19.2380 -77.4533 163° South  Level FlightAware Approximate
08:52PM 19.1143 -77.4129 163° South  Level FlightAware Approximate
08:53PM 18.9907 -77.3726 163° South  Level FlightAware Approximate
08:54PM 18.8670 -77.3323 163° South  Level FlightAware Approximate
08:55PM 18.7433 -77.2921 163° South  Level FlightAware Approximate
08:56PM 18.6197 -77.2520 163° South  Level FlightAware Approximate
08:57PM 18.4960 -77.2119 163° South  Level FlightAware Approximate
08:58PM 18.3723 -77.1718 163° South  Level FlightAware Approximate
08:59PM 18.2486 -77.1319 163° South  Level FlightAware Approximate
09:00PM 18.1249 -77.0920 163° South  Level FlightAware Approximate
09:01PM 18.0012 -77.0521 163° South  Level FlightAware Approximate
09:02PM 17.8774 -77.0123 163° South  Level FlightAware Approximate
09:03PM 17.7537 -76.9725 163° South  Level FlightAware Approximate
09:04PM 17.6299 -76.9329 163° South  Level FlightAware Approximate
09:05PM 17.5062 -76.8932 163° South  Level FlightAware Approximate
09:06PM 17.3824 -76.8536 163° South  Level FlightAware Approximate
09:07PM 17.2586 -76.8141 163° South  Level FlightAware Approximate
09:08PM 17.1349 -76.7745 163° South  Level FlightAware Approximate
09:09PM 17.0111 -76.7350 163° South  Level FlightAware Approximate
09:10PM 16.8874 -76.6955 163° South  Level FlightAware Approximate
09:11PM 16.7636 -76.6561 163° South  Level FlightAware Approximate
09:12PM 16.6398 -76.6167 163° South  Level FlightAware Approximate
09:13PM 16.5160 -76.5774 163° South  Level FlightAware Approximate
09:14PM 16.3922 -76.5381 163° South  Level FlightAware Approximate
09:15PM 16.2684 -76.4989 163° South  Level FlightAware Approximate
09:16PM 16.1446 -76.4598 163° South  Level FlightAware Approximate
09:17PM 16.0208 -76.4206 163° South  Level FlightAware Approximate
09:18PM 15.8970 -76.3816 163° South  Level FlightAware Approximate
09:19PM 15.7732 -76.3426 163° South  Level FlightAware Approximate
09:20PM 15.6493 -76.3036 163° South  Level FlightAware Approximate
09:21PM 15.5255 -76.2646 163° South  Level FlightAware Approximate
09:22PM 15.4016 -76.2258 163° South  Level FlightAware Approximate
09:23PM 15.2778 -76.1869 163° South  Level FlightAware Approximate
09:24PM 15.1539 -76.1481 163° South  Level FlightAware Approximate
09:25PM 15.0301 -76.1094 163° South  Level FlightAware Approximate
09:26PM 14.9062 -76.0706 163° South  Level FlightAware Approximate
09:27PM 14.7823 -76.0319 163° South  Level FlightAware Approximate
09:28PM 14.6585 -75.9933 163° South  Level FlightAware Approximate
09:29PM 14.5346 -75.9547 163° South  Level FlightAware Approximate
09:30PM 14.4107 -75.9161 163° South  Level FlightAware Approximate
09:31PM 14.2868 -75.8775 163° South  Level FlightAware Approximate
09:32PM 14.1629 -75.8390 163° South  Level FlightAware Approximate
09:33PM 14.0390 -75.8006 163° South  Level FlightAware Approximate
09:34PM 13.9151 -75.7622 163° South  Level FlightAware Approximate
09:35PM 13.7912 -75.7238 163° South  Level FlightAware Approximate
09:36PM 13.6673 -75.6855 163° South  Level FlightAware Approximate
09:37PM 13.5433 -75.6472 163° South  Level FlightAware Approximate
09:38PM 13.4194 -75.6089 163° South  Level FlightAware Approximate
09:39PM 13.2955 -75.5707 163° South  Level FlightAware Approximate
09:40PM 13.1715 -75.5326 163° South  Level FlightAware Approximate
09:41PM 13.0476 -75.4944 163° South  Level FlightAware Approximate
09:42PM 12.9236 -75.4563 163° South  Level FlightAware Approximate
09:43PM 12.7997 -75.4183 163° South  Level FlightAware Approximate
09:44PM 12.6757 -75.3803 163° South  Level FlightAware Approximate
09:45PM 12.5517 -75.3423 163° South  Level FlightAware Approximate
09:46PM 12.4277 -75.3043 163° South  Level FlightAware Approximate
09:47PM 12.3038 -75.2664 163° South  Level FlightAware Approximate
09:48PM 12.1797 -75.2289 164° South  Level FlightAware Approximate
09:49PM 12.0555 -75.1918 164° South  Level FlightAware Approximate
09:49PM 11.6840 -75.0910 164° South 464 534 33,000  Level FlightAware
09:49PM 11.6000 -75.0700 166° South 463 533 33,000  Level FlightAware
09:50PM 11.9313 -75.1547 164° South  Level FlightAware Approximate
09:50PM 11.5240 -75.0490 165° South 462 532 33,000  Level FlightAware
09:51PM 11.4490 -75.0300 166° South 462 532 33,000  Level FlightAware
09:52PM 11.3360 -75.0010 166° South 463 533 33,000  Level FlightAware
09:52PM 11.2870 -74.9880 165° South 463 533 33,000  Level FlightAware
09:53PM 11.1800 -74.9600 166° South 463 533 33,000  Level FlightAware
09:54PM 11.0880 -74.9360 166° South 463 533 33,000  Level FlightAware
09:54PM 11.0060 -74.9140 165° South 461 531 33,000  Level FlightAware
09:55PM 10.9200 -74.8920 166° South 463 533 33,000  Level FlightAware
09:56PM 10.8410 -74.8720 166° South 464 534 33,000  Level FlightAware
09:56PM 10.7460 -74.8460 165° South 466 536 33,000  Level FlightAware
09:57PM 10.6700 -74.8250 165° South 466 536 33,000  Level FlightAware
09:58PM 10.5320 -74.7850 164° South 467 537 33,000  Level FlightAware
09:59PM 10.4440 -74.7600 164° South 478 550 33,000  Level FlightAware
09:59PM 10.3660 -74.7380 164° South 461 531 33,000  Level FlightAware
10:00PM 10.2660 -74.7100 165° South 459 528 33,000  Level FlightAware
10:01PM 10.1600 -74.6800 164° South 462 532 33,000  Level FlightAware
10:02PM 10.0500 -74.6480 164° South 464 534 33,000  Level FlightAware
10:03PM 9.9530 -74.6210 165° South 467 537 33,000  Level FlightAware
10:03PM 9.8740 -74.5990 165° South 466 536 33,000  Level FlightAware
10:04PM 9.7750 -74.5710 164° South 465 535 33,000  Level FlightAware
10:05PM 9.6710 -74.5420 165° South 463 533 33,000  Level FlightAware
10:06PM 9.5880 -74.5190 165° South 463 533 33,000  Level FlightAware
10:06PM 9.4950 -74.4920 164° South 463 533 33,000  Level FlightAware
10:07PM 9.4150 -74.4700 165° South 463 533 33,000  Level FlightAware
10:08PM 9.3300 -74.4460 164° South 463 533 33,000  Level FlightAware
10:08PM 9.2470 -74.4230 165° South 463 533 33,000  Level FlightAware
10:09PM 9.1560 -74.3970 164° South 461 531 33,000  Level FlightAware
10:10PM 9.0720 -74.3740 165° South 462 532 33,000  Level FlightAware
10:10PM 8.9880 -74.3500 164° South 467 537 33,000  Level FlightAware
10:11PM 8.9250 -74.3320 164° South 476 548 33,000  Level FlightAware
10:12PM 8.8240 -74.3040 165° South 477 549 33,000  Level FlightAware
10:12PM 8.7470 -74.2830 165° South 477 549 33,000  Level FlightAware
10:13PM 8.6460 -74.2540 164° South 477 549 33,000  Level FlightAware
10:14PM 8.5610 -74.2300 164° South 477 549 33,000  Level FlightAware
10:14PM 8.4740 -74.2060 165° South 477 549 33,000  Level FlightAware
10:15PM 8.3730 -74.1780 165° South 479 551 33,000  Level FlightAware
10:16PM 8.2890 -74.1540 164° South 480 552 33,000  Level FlightAware
10:17PM 8.2020 -74.1300 165° South 480 552 33,000  Level FlightAware
10:17PM 8.0850 -74.0970 164° South 478 550 33,000  Level FlightAware
10:18PM 7.9970 -74.0730 165° South 477 549 33,000  Level FlightAware
10:19PM 7.9120 -74.0490 164° South 476 548 33,000  Level FlightAware
10:19PM 7.8280 -74.0260 165° South 472 543 33,000  Level FlightAware
10:20PM 7.7530 -74.0060 165° South 473 544 33,000  Level FlightAware
10:21PM 7.6630 -73.9810 165° South 474 545 33,000  Level FlightAware
10:21PM 7.5720 -73.9560 165° South 475 547 33,000  Level FlightAware
10:22PM 7.4760 -73.9290 164° South 475 547 33,000  Level FlightAware
10:23PM 7.3920 -73.9060 165° South 473 544 33,000  Level FlightAware
10:24PM 7.3170 -73.8860 165° South 473 544 33,000  Level FlightAware
10:24PM 7.2250 -73.8600 164° South 472 543 33,000  Level FlightAware
10:25PM 7.1600 -73.8430 165° South 472 543 33,000  Level FlightAware
10:26PM 7.0580 -73.8140 164° South 472 543 33,000  Level FlightAware
10:26PM 6.9420 -73.7830 165° South 472 543 33,000  Level FlightAware
10:27PM 6.8450 -73.7580 166° South 473 544 33,000  Level FlightAware
10:28PM 6.7660 -73.7380 166° South 474 545 33,000  Level FlightAware
10:29PM 6.6670 -73.7120 165° South 472 543 33,000  Level FlightAware
10:29PM 6.5810 -73.6890 165° South 472 543 33,000  Level FlightAware
10:30PM 6.5040 -73.6690 166° South 473 544 33,000  Level FlightAware
10:31PM 6.4110 -73.6450 166° South 473 544 33,000  Level FlightAware
10:31PM 6.3240 -73.6220 165° South 472 543 33,000  Level FlightAware
10:32PM 6.2510 -73.6030 165° South 472 543 33,000  Level FlightAware
10:33PM 6.1550 -73.5780 165° South 473 544 33,000  Level FlightAware
10:33PM 6.0710 -73.5540 164° South 473 544 33,000  Level FlightAware
10:34PM 5.9840 -73.5200 159° South 473 544 33,000  Level FlightAware
10:35PM 5.8990 -73.4750 152° Southeast 466 536 33,000  Level FlightAware
10:35PM 5.8270 -73.4370 152° Southeast 456 525 33,000  Level FlightAware
10:36PM 5.7370 -73.3930 154° Southeast 470 541 33,000  Level FlightAware
10:37PM 5.6650 -73.3650 159° South 469 540 33,000  Level FlightAware
10:37PM 5.5780 -73.3440 166° South 472 543 33,000  Level FlightAware
10:38PM 5.4930 -73.3270 169° South 472 543 33,000  Level FlightAware
10:39PM 5.4070 -73.3100 169° South 473 544 33,000  Level FlightAware
10:39PM 5.3280 -73.2940 169° South 471 542 33,000  Level FlightAware
10:40PM 5.2350 -73.2750 169° South 469 540 33,000  Level FlightAware
10:41PM 5.1490 -73.2590 170° South 470 541 33,000  Level FlightAware
10:41PM 5.0560 -73.2410 169° South 470 541 33,000  Level FlightAware
10:42PM 4.9680 -73.2240 169° South 468 539 33,000  Level FlightAware
10:43PM 4.8740 -73.2070 170° South 467 537 33,000  Level FlightAware
10:43PM 4.7890 -73.1910 169° South 468 539 33,000  Level FlightAware
10:44PM 4.7120 -73.1780 170° South 468 539 33,000  Level FlightAware
10:45PM 4.6170 -73.1610 170° South 467 537 33,000  Level FlightAware
10:46PM 4.5280 -73.1450 170° South 466 536 33,000  Level FlightAware
10:46PM 4.4520 -73.1310 170° South 466 536 33,000  Level FlightAware
10:47PM 4.3500 -73.1120 169° South 467 537 33,000  Level FlightAware
10:48PM 4.2850 -73.1000 170° South 467 537 33,000  Level FlightAware
10:48PM 4.1990 -73.0830 169° South 467 537 33,000  Level FlightAware
10:49PM 4.1340 -73.0700 169° South 467 537 33,000  Level FlightAware
10:50PM 4.0470 -73.0530 169° South 467 537 33,000  Level FlightAware
10:50PM 3.9830 -73.0410 169° South 467 537 33,000  Level FlightAware
10:51PM 3.8940 -73.0230 169° South 467 537 33,000  Level FlightAware
10:52PM 3.8290 -73.0110 170° South 467 537 33,000  Level FlightAware
10:53PM 3.7430 -72.9940 169° South 467 537 33,000  Level FlightAware
10:53PM 3.6780 -72.9810 169° South 467 537 33,000  Level FlightAware
10:54PM 3.5910 -72.9640 169° South 467 537 33,000  Level FlightAware
10:55PM 3.5260 -72.9520 170° South 467 537 33,000  Level FlightAware
10:55PM 3.4620 -72.9390 169° South 467 537 33,000  Level FlightAware
10:56PM 3.3750 -72.9220 169° South 467 537 33,000 -60 Level FlightAware
10:59PM 3.0699 -72.8209 162° South  Level Estimated
11:00PM 2.9471 -72.7803 162° South  Level Estimated
11:01PM 2.8242 -72.7396 162° South  Level Estimated
11:02PM 2.7014 -72.6989 162° South  Level Estimated
11:03PM 2.5785 -72.6583 162° South  Level Estimated
11:04PM 2.4556 -72.6176 162° South  Level Estimated
11:05PM 2.3328 -72.5770 162° South  Level Estimated
11:06PM 2.2099 -72.5364 162° South  Level Estimated
11:07PM 2.0871 -72.4957 162° South  Level Estimated
11:08PM 1.9642 -72.4551 162° South  Level Estimated
11:09PM 1.8413 -72.4145 162° South  Level Estimated
11:10PM 1.7185 -72.3739 162° South  Level Estimated
11:11PM 1.5956 -72.3333 162° South  Level Estimated
11:12PM 1.4727 -72.2927 162° South  Level Estimated
11:13PM 1.3499 -72.2521 162° South  Level Estimated
11:14PM 1.2270 -72.2115 162° South  Level Estimated
11:15PM 1.1041 -72.1709 162° South  Level Estimated
11:16PM 0.9813 -72.1304 162° South  Level Estimated
11:17PM 0.8584 -72.0898 162° South  Level Estimated
11:18PM 0.7355 -72.0492 162° South  Level Estimated
11:19PM 0.6126 -72.0086 162° South  Level Estimated
11:20PM 0.4898 -71.9681 162° South  Level Estimated
11:21PM 0.3669 -71.9275 162° South  Level Estimated
11:22PM 0.2440 -71.8869 162° South  Level Estimated
11:23PM 0.1212 -71.8464 162° South  Level Estimated
11:24PM -0.0017 -71.8058 162° South  Level Estimated
11:25PM -0.1246 -71.7652 162° South  Level Estimated
11:26PM -0.2474 -71.7246 162° South  Level Estimated
11:27PM -0.3703 -71.6841 162° South  Level Estimated
11:28PM -0.4932 -71.6435 162° South  Level Estimated
11:29PM -0.6161 -71.6029 162° South  Level Estimated
11:30PM -0.7389 -71.5624 162° South  Level Estimated
11:31PM -0.8618 -71.5218 162° South  Level Estimated
11:32PM -0.9847 -71.4812 162° South  Level Estimated
11:33PM -1.1075 -71.4406 162° South  Level Estimated
11:34PM -1.2304 -71.4000 162° South  Level Estimated
11:35PM -1.3533 -71.3595 162° South  Level Estimated
11:36PM -1.4761 -71.3189 162° South  Level Estimated
11:37PM -1.5990 -71.2783 162° South  Level Estimated
11:38PM -1.7219 -71.2377 162° South  Level Estimated
11:39PM -1.8447 -71.1971 162° South  Level Estimated
11:40PM -1.9676 -71.1564 162° South  Level Estimated
11:41PM -2.0905 -71.1158 162° South  Level Estimated
11:42PM -2.2133 -71.0752 162° South  Level Estimated
11:43PM -2.3362 -71.0346 162° South  Level Estimated
11:44PM -2.4590 -70.9939 162° South  Level Estimated
11:45PM -2.5819 -70.9533 162° South  Level Estimated
11:46PM -2.7048 -70.9126 162° South  Level Estimated
11:47PM -2.8276 -70.8720 162° South  Level Estimated
11:48PM -2.9505 -70.8313 162° South  Level Estimated
11:49PM -3.0733 -70.7906 162° South  Level Estimated
11:50PM -3.1962 -70.7499 162° South  Level Estimated
11:51PM -3.3190 -70.7092 162° South  Level Estimated
11:52PM -3.4419 -70.6685 162° South  Level Estimated
11:53PM -3.5647 -70.6278 162° South  Level Estimated
11:54PM -3.6876 -70.5871 162° South  Level Estimated
11:55PM -3.8104 -70.5463 162° South  Level Estimated
11:56PM -3.9332 -70.5056 162° South  Level Estimated
11:57PM -4.0561 -70.4648 162° South  Level Estimated
11:58PM -4.1789 -70.4240 162° South  Level Estimated
11:59PM -4.3018 -70.3833 162° South  Level Estimated
12:00AM -4.4246 -70.3425 162° South  Level Estimated
12:01AM -4.5474 -70.3016 162° South  Level Estimated
12:02AM -4.6702 -70.2608 162° South  Level Estimated
12:03AM -4.7931 -70.2200 162° South  Level Estimated
12:04AM -4.9159 -70.1791 162° South  Level Estimated
12:05AM -5.0387 -70.1382 162° South  Level Estimated
12:06AM -5.1615 -70.0973 162° South  Level Estimated
12:07AM -5.2843 -70.0564 162° South  Level Estimated
12:08AM -5.4071 -70.0155 162° South  Level Estimated
12:09AM -5.5300 -69.9746 162° South  Level Estimated
12:10AM -5.6528 -69.9336 162° South  Level Estimated
12:11AM -5.7756 -69.8926 162° South  Level Estimated
12:12AM -5.8984 -69.8516 162° South  Level Estimated
12:13AM -6.0212 -69.8106 162° South  Level Estimated
12:14AM -6.1439 -69.7696 162° South  Level Estimated
12:15AM -6.2667 -69.7286 162° South  Level Estimated
12:16AM -6.3895 -69.6875 162° South  Level Estimated
12:17AM -6.5123 -69.6464 162° South  Level Estimated
12:18AM -6.6351 -69.6053 162° South  Level Estimated
12:19AM -6.7579 -69.5642 162° South  Level Estimated
12:20AM -6.8807 -69.5230 162° South  Level Estimated
12:21AM -7.0034 -69.4818 162° South  Level Estimated
12:22AM -7.1262 -69.4407 162° South  Level Estimated
12:23AM -7.2490 -69.3994 162° South  Level Estimated
12:24AM -7.3717 -69.3582 162° South  Level Estimated
12:25AM -7.4945 -69.3169 162° South  Level Estimated
12:26AM -7.6172 -69.2757 162° South  Level Estimated
12:27AM -7.7400 -69.2344 162° South  Level Estimated
12:28AM -7.8627 -69.1930 162° South  Level Estimated
12:29AM -7.9855 -69.1517 162° South  Level Estimated
12:30AM -8.1082 -69.1103 162° South  Level Estimated
12:31AM -8.2309 -69.0689 162° South  Level Estimated
12:32AM -8.3537 -69.0275 162° South  Level Estimated
12:33AM -8.4764 -68.9860 162° South  Level Estimated
12:34AM -8.5991 -68.9445 162° South  Level Estimated
12:35AM -8.7218 -68.9030 162° South  Level Estimated
12:36AM -8.8445 -68.8615 162° South  Level Estimated
12:37AM -8.9672 -68.8199 162° South  Level Estimated
12:38AM -9.0899 -68.7784 161° South  Level Estimated
12:39AM -9.2127 -68.7367 161° South  Level Estimated
12:40AM -9.3353 -68.6951 161° South  Level Estimated
12:41AM -9.4580 -68.6534 161° South  Level Estimated
12:42AM -9.5807 -68.6117 161° South  Level Estimated
12:43AM -9.7034 -68.5699 161° South  Level Estimated
12:44AM -9.8261 -68.5282 161° South  Level Estimated
12:45AM -9.9487 -68.4864 161° South  Level Estimated
12:46AM -10.0714 -68.4445 161° South  Level Estimated
12:47AM -10.1940 -68.4027 161° South  Level Estimated
12:48AM -10.3167 -68.3608 161° South  Level Estimated
12:49AM -10.4394 -68.3189 161° South  Level Estimated
12:50AM -10.5620 -68.2769 161° South  Level Estimated
12:51AM -10.6846 -68.2349 161° South  Level Estimated
12:52AM -10.8073 -68.1929 161° South  Level Estimated
12:53AM -10.9299 -68.1508 161° South  Level Estimated
12:54AM -11.0525 -68.1087 161° South  Level Estimated
12:55AM -11.1751 -68.0666 161° South  Level Estimated
12:56AM -11.2977 -68.0244 161° South  Level Estimated
12:57AM -11.4203 -67.9822 161° South  Level Estimated
12:58AM -11.5429 -67.9400 161° South  Level Estimated
12:59AM -11.6655 -67.8977 161° South  Level Estimated
01:00AM -11.7881 -67.8554 161° South  Level Estimated
01:01AM -11.9107 -67.8130 161° South  Level Estimated
01:02AM -12.0332 -67.7706 161° South  Level Estimated
01:03AM -12.1558 -67.7282 161° South  Level Estimated
01:04AM -12.2783 -67.6857 161° South  Level Estimated
01:05AM -12.4009 -67.6432 161° South  Level Estimated
01:06AM -12.5234 -67.6007 161° South  Level Estimated
01:07AM -12.6460 -67.5581 161° South  Level Estimated
01:08AM -12.7685 -67.5155 161° South  Level Estimated
01:09AM -12.8910 -67.4728 161° South  Level Estimated
01:10AM -13.0135 -67.4301 161° South  Level Estimated
01:11AM -13.1361 -67.3873 161° South  Level Estimated
01:12AM -13.2586 -67.3445 161° South  Level Estimated
01:13AM -13.3811 -67.3017 161° South  Level Estimated
01:14AM -13.5035 -67.2588 161° South  Level Estimated
01:15AM -13.6260 -67.2159 161° South  Level Estimated
01:16AM -13.7485 -67.1729 161° South  Level Estimated
01:17AM -13.8710 -67.1299 161° South  Level Estimated
01:18AM -13.9934 -67.0868 161° South  Level Estimated
01:19AM -14.1159 -67.0437 161° South  Level Estimated
01:20AM -14.2383 -67.0005 161° South  Level Estimated
01:21AM -14.3607 -66.9574 161° South  Level Estimated
01:22AM -14.4832 -66.9141 161° South  Level Estimated
01:23AM -14.6056 -66.8708 161° South  Level Estimated
01:24AM -14.7280 -66.8275 161° South  Level Estimated
01:25AM -14.8504 -66.7841 161° South  Level Estimated
01:26AM -14.9728 -66.7406 161° South  Level Estimated
01:27AM -15.0952 -66.6971 161° South  Level Estimated
01:28AM -15.2176 -66.6536 161° South  Level Estimated
01:29AM -15.3399 -66.6100 161° South  Level Estimated
01:30AM -15.4623 -66.5664 161° South  Level Estimated
01:31AM -15.5847 -66.5227 161° South  Level Estimated
01:32AM -15.7070 -66.4789 161° South  Level Estimated
01:33AM -15.8293 -66.4351 161° South  Level Estimated
01:34AM -15.9517 -66.3913 161° South  Level Estimated
01:35AM -16.0740 -66.3473 161° South  Level Estimated
01:36AM -16.1963 -66.3034 161° South  Level Estimated
01:37AM -16.3186 -66.2594 161° South  Level Estimated
01:38AM -16.4409 -66.2153 161° South  Level Estimated
01:39AM -16.5632 -66.1712 161° South  Level Estimated
01:40AM -16.6854 -66.1270 161° South  Level Estimated
01:41AM -16.8077 -66.0827 161° South  Level Estimated
01:42AM -16.9299 -66.0384 161° South  Level Estimated
01:43AM -17.0522 -65.9941 161° South  Level Estimated
01:44AM -17.1744 -65.9497 161° South  Level Estimated
01:45AM -17.2966 -65.9052 161° South  Level Estimated
01:46AM -17.4188 -65.8607 161° South  Level Estimated
01:47AM -17.5410 -65.8161 161° South  Level Estimated
01:48AM -17.6632 -65.7714 161° South  Level Estimated
01:49AM -17.7854 -65.7267 161° South  Level Estimated
01:50AM -17.9076 -65.6820 161° South  Level Estimated
01:51AM -18.0297 -65.6371 161° South  Level Estimated
01:52AM -18.1519 -65.5922 161° South  Level Estimated
01:53AM -18.2740 -65.5473 161° South  Level Estimated
01:54AM -18.3962 -65.5023 161° South  Level Estimated
01:55AM -18.5183 -65.4572 161° South  Level Estimated
01:56AM -18.6404 -65.4120 161° South  Level Estimated
01:57AM -18.7625 -65.3668 161° South  Level Estimated
01:58AM -18.8846 -65.3215 161° South  Level Estimated
01:59AM -19.0067 -65.2762 161° South  Level Estimated
02:00AM -19.1287 -65.2308 161° South  Level Estimated
02:01AM -19.2508 -65.1853 161° South  Level Estimated
02:02AM -19.3728 -65.1397 161° South  Level Estimated
02:03AM -19.4949 -65.0941 161° South  Level Estimated
02:04AM -19.6169 -65.0484 161° South  Level Estimated
02:05AM -19.7389 -65.0026 161° South  Level Estimated
02:06AM -19.8609 -64.9568 161° South  Level Estimated
02:07AM -19.9829 -64.9109 161° South  Level Estimated
02:08AM -20.1049 -64.8650 161° South  Level Estimated
02:09AM -20.2268 -64.8189 160° South  Level Estimated
02:10AM -20.3488 -64.7728 160° South  Level Estimated
02:11AM -20.4707 -64.7266 160° South  Level Estimated
02:12AM -20.5926 -64.6804 160° South  Level Estimated
02:13AM -20.7146 -64.6340 160° South  Level Estimated
02:14AM -20.8365 -64.5876 160° South  Level Estimated
02:15AM -20.9584 -64.5411 160° South  Level Estimated
02:16AM -21.0802 -64.4946 160° South  Level Estimated
02:17AM -21.2021 -64.4480 160° South  Level Estimated
02:18AM -21.3240 -64.4012 160° South  Level Estimated
02:19AM -21.4458 -64.3544 160° South  Level Estimated
02:20AM -21.5676 -64.3076 160° South  Level Estimated
02:21AM -21.6894 -64.2606 160° South  Level Estimated
02:22AM -21.8112 -64.2136 160° South  Level Estimated
02:23AM -21.9330 -64.1665 160° South  Level Estimated
02:24AM -22.0548 -64.1193 160° South  Level Estimated
02:25AM -22.1766 -64.0721 160° South  Level Estimated
02:26AM -22.2983 -64.0247 160° South  Level Estimated
02:27AM -22.4200 -63.9773 160° South  Level Estimated
02:28AM -22.5418 -63.9298 160° South  Level Estimated
02:29AM -22.6635 -63.8822 160° South  Level Estimated
02:30AM -22.7852 -63.8345 160° South  Level Estimated
02:31AM -22.9068 -63.7867 160° South  Level Estimated
02:32AM -23.0285 -63.7389 160° South  Level Estimated
02:33AM -23.1501 -63.6909 160° South  Level Estimated
02:34AM -23.2718 -63.6429 160° South  Level Estimated
02:35AM -23.3934 -63.5948 160° South  Level Estimated
02:36AM -23.5150 -63.5466 160° South  Level Estimated
02:37AM -23.6366 -63.4983 160° South  Level Estimated
02:38AM -23.7582 -63.4499 160° South  Level Estimated
02:39AM -23.8797 -63.4015 160° South  Level Estimated
02:40AM -24.0012 -63.3529 160° South  Level Estimated
02:41AM -24.1228 -63.3042 160° South  Level Estimated
02:42AM -24.2443 -63.2555 160° South  Level Estimated
02:43AM -24.3658 -63.2066 160° South  Level Estimated
02:44AM -24.4873 -63.1577 160° South  Level Estimated
02:45AM -24.6087 -63.1087 160° South  Level Estimated
02:46AM -24.7302 -63.0596 160° South  Level Estimated
02:47AM -24.8516 -63.0103 160° South  Level Estimated
02:48AM -24.9730 -62.9610 160° South  Level Estimated
02:49AM -25.0944 -62.9116 160° South  Level Estimated
02:50AM -25.2158 -62.8621 160° South  Level Estimated
02:51AM -25.3372 -62.8125 160° South  Level Estimated
02:52AM -25.4585 -62.7628 160° South  Level Estimated
02:53AM -25.5799 -62.7130 160° South  Level Estimated
02:54AM -25.7012 -62.6630 160° South  Level Estimated
02:55AM -25.8225 -62.6130 160° South  Level Estimated
02:56AM -25.9438 -62.5629 160° South  Level Estimated
02:57AM -26.0651 -62.5127 160° South  Level Estimated
02:58AM -26.1863 -62.4623 160° South  Level Estimated
02:59AM -26.3075 -62.4119 160° South  Level Estimated
03:00AM -26.4287 -62.3614 160° South  Level Estimated
03:01AM -26.5499 -62.3107 160° South  Level Estimated
03:02AM -26.6711 -62.2600 159° South  Level Estimated
03:03AM -26.7923 -62.2091 159° South  Level Estimated
03:04AM -26.9134 -62.1582 159° South  Level Estimated
03:05AM -27.0345 -62.1071 159° South  Level Estimated
03:06AM -27.1557 -62.0559 159° South  Level Estimated
03:07AM -27.2768 -62.0046 159° South  Level Estimated
03:08AM -27.3978 -61.9532 159° South  Level Estimated
03:09AM -27.5189 -61.9017 159° South  Level Estimated
03:10AM -27.6399 -61.8500 159° South  Level Estimated
03:11AM -27.7609 -61.7983 159° South  Level Estimated
03:12AM -27.8819 -61.7464 159° South  Level Estimated
03:13AM -28.0029 -61.6944 159° South  Level Estimated
03:14AM -28.1238 -61.6423 159° South  Level Estimated
03:15AM -28.2447 -61.5901 159° South  Level Estimated
03:16AM -28.3657 -61.5378 159° South  Level Estimated
03:17AM -28.4865 -61.4854 159° South  Level Estimated
03:18AM -28.6074 -61.4328 159° South  Level Estimated
03:19AM -28.7283 -61.3801 159° South  Level Estimated
03:20AM -28.8491 -61.3273 159° South  Level Estimated
03:21AM -28.9699 -61.2743 159° South  Level Estimated
03:22AM -29.0907 -61.2213 159° South  Level Estimated
03:23AM -29.2115 -61.1681 159° South  Level Estimated
03:24AM -29.3322 -61.1148 159° South  Level Estimated
03:25AM -29.4529 -61.0613 159° South  Level Estimated
03:26AM -29.5737 -61.0078 159° South  Level Estimated
03:27AM -29.6943 -60.9541 159° South  Level Estimated
03:28AM -29.8150 -60.9002 159° South  Level Estimated
03:29AM -29.9356 -60.8463 159° South  Level Estimated
03:30AM -30.0563 -60.7922 159° South  Level Estimated
03:31AM -30.1769 -60.7380 159° South  Level Estimated
03:32AM -30.2974 -60.6837 159° South  Level Estimated
03:33AM -30.4180 -60.6292 159° South  Level Estimated
03:34AM -30.5385 -60.5746 159° South  Level Estimated
03:35AM -30.6590 -60.5198 159° South  Level Estimated
03:36AM -30.7795 -60.4649 159° South  Level Estimated
03:37AM -30.9000 -60.4099 159° South  Level Estimated
03:38AM -31.0204 -60.3547 159° South  Level Estimated
03:39AM -31.1408 -60.2994 159° South  Level Estimated
03:40AM -31.2612 -60.2439 159° South  Level Estimated
03:41AM -31.3816 -60.1884 158° South  Level Estimated
03:42AM -31.5019 -60.1326 158° South  Level Estimated
03:43AM -31.6222 -60.0768 158° South  Level Estimated
03:44AM -31.7425 -60.0207 158° South  Level Estimated
03:45AM -31.8628 -59.9646 158° South  Level Estimated
03:46AM -31.9830 -59.9083 158° South  Level Estimated
03:47AM -32.1032 -59.8518 158° South  Level Estimated
03:48AM -32.2234 -59.7952 158° South  Level Estimated
03:49AM -32.3436 -59.7384 158° South  Level Estimated
03:50AM -32.4637 -59.6815 158° South  Level Estimated
03:51AM -32.5839 -59.6245 158° South  Level Estimated
03:52AM -32.7040 -59.5672 158° South  Level Estimated
03:53AM -32.8240 -59.5099 158° South  Level Estimated
03:54AM -32.9441 -59.4524 158° South  Level Estimated
03:55AM -33.0641 -59.3947 158° South  Level Estimated
03:56AM -33.1841 -59.3368 158° South  Level Estimated
03:57AM -33.3040 -59.2788 158° South  Level Estimated
03:58AM -33.4240 -59.2207 158° South  Level Estimated
03:59AM -33.5439 -59.1624 158° South  Level Estimated
04:00AM -33.6637 -59.1039 158° South  Level Estimated
04:00AM -33.3900 -59.4970 158° South 404 465 23,600  Level FlightAware
04:01AM -33.7836 -59.0452 158° South  Level Estimated
04:01AM -33.4560 -59.4690 161° South 398 458 22,500  Level FlightAware
04:01AM -33.5260 -59.4390 160° South 395 455 21,200 -1,740 Descending FlightAware
04:02AM -33.5920 -59.4100 160° South 390 449 20,200 -1,920 Descending FlightAware
04:03AM -33.6620 -59.3800 160° South 396 456 18,700 -1,980 Descending FlightAware
04:03AM -33.7290 -59.3510 160° South 397 457 17,600 -1,680 Descending FlightAware
04:04AM -33.8000 -59.3200 160° South 389 448 16,500 -1,500 Descending FlightAware
04:05AM -33.8670 -59.2910 160° South 379 436 15,600 -1,380 Descending FlightAware
04:05AM -33.9260 -59.2650 160° South 374 430 14,800 -1,440 Descending FlightAware
04:06AM -33.9950 -59.2350 160° South 370 426 13,800 -1,380 Descending FlightAware
04:07AM -34.0650 -59.2040 160° South 362 417 12,900 -1,320 Descending FlightAware
04:07AM -34.1270 -59.1770 160° South 353 406 12,000 -1,380 Descending FlightAware
04:08AM -34.1940 -59.1480 160° South 341 392 11,000 -1,020 Descending FlightAware
04:09AM -34.2510 -59.1230 160° South 322 371 10,600 -600 Descending FlightAware
04:10AM -34.3120 -59.0960 160° South 301 346 10,200 -540 Descending FlightAware
04:10AM -34.3470 -59.0810 161° South 289 333 10,000 -780 Descending FlightAware
04:10AM -34.3830 -59.0650 160° South 285 328 9,500 -840 Descending FlightAware
04:11AM -34.3940 -59.0600 159° South 277 319 9,300 -1,080 Descending FlightAware
04:11AM -34.4440 -59.0380 160° South 272 313 8,600 -1,380 Descending FlightAware
04:12AM -34.4620 -59.0300 160° South 279 321 8,400 -960 Descending FlightAware
04:12AM -34.4980 -59.0140 160° South 275 316 7,900 -1,020 Descending FlightAware
04:13AM -34.5330 -58.9990 161° South 272 313 7,400 -1,080 Descending FlightAware
04:13AM -34.5460 -58.9930 159° South 271 312 7,200 -900 Descending FlightAware
04:13AM -34.5800 -58.9780 160° South 259 298 6,800 -720 Descending FlightAware
04:14AM -34.6150 -58.9620 159° South 246 283 6,500 -540 Descending FlightAware
04:14AM -34.6310 -58.9550 160° South 244 281 6,400 -600 Descending FlightAware
04:14AM -34.6570 -58.9430 159° South 226 260 6,100 -960 Descending FlightAware
04:15AM -34.6820 -58.9320 160° South 224 258 5,600 -1,200 Descending FlightAware
04:15AM -34.7030 -58.9230 161° South 228 262 5,200 -900 Descending FlightAware
04:15AM -34.7240 -58.9140 161° South 228 262 5,000 -240 Descending FlightAware
04:16AM -34.7590 -58.8940 155° Southeast 245 282 5,000 -360 Level FlightAware
04:16AM -34.7660 -58.8770 117° Southeast 262 302 4,700 -1,200 Descending FlightAware
04:17AM -34.7670 -58.8450 92° East 264 304 4,300 -1,200 Descending FlightAware
04:17AM -34.7700 -58.8260 101° East 263 303 4,000 -1,500 Descending FlightAware
04:17AM -34.7770 -58.7870 102° East 266 306 3,300 -1,320 Descending FlightAware
04:18AM -34.7850 -58.7440 103° East 242 278 2,800 -900 Descending FlightAware
04:18AM -34.7910 -58.7080 101° East 205 236 2,400 -840 Descending FlightAware
04:19AM -34.7950 -58.6850 102° East 192 221 2,100 -840 Descending FlightAware
04:19AM -34.8000 -58.6610 104° East 175 201 1,800 -900 Descending FlightAware
04:19AM -34.8020 -58.6460 99° East 163 188 1,500 -900 Descending FlightAware
04:20AM -34.8060 -58.6250 103° East 148 170 1,200 -780 Descending FlightAware
04:20AM -34.8110 -58.6010 104° East 143 165 800 -780 Descending FlightAware
04:21AM -34.8140 -58.5810 100° East 151 174 500 -660 Descending FlightAware
04:21AM -34.8150 -58.5750 101° East 153 176 400 -480 Descending FlightAware
04:21AM -34.8210 -58.5400 102° East 152 175 100 -480 Descending FlightAware
04:24AM -34.8235 -58.5288 147° Southeast  Level Estimated
04:25AM -34.8235 -58.5288 147° Southeast  Level Estimated
04:26AM -34.8235 -58.5288 147° Southeast  Level Estimated